Time;durP1;ratioP1;P1;durP2;ratioP2;P2;SDS_P1;SDS_P2;PMS_P1;PMS_P2;Temp;Humidity;BMP_temperature;BMP_pressure;BME280_temperature;BME280_humidity;BME280_pressure;Samples;Min_cycle;Max_cycle;Signal;HPM_P1;HPM_P2
2022/10/31 00:01:17;;;;;;;3.03;2.73;;;11.60;99.90;;;;;;491408;241;28379;-69
2022/10/31 00:03:19;;;;;;;3.23;2.77;;;11.60;99.90;;;;;;491411;241;28651;-69
2022/10/31 00:05:20;;;;;;;3.40;2.37;;;11.60;99.90;;;;;;491288;241;28551;-68
2022/10/31 00:07:21;;;;;;;2.50;2.30;;;11.60;99.90;;;;;;491402;241;28790;-70
2022/10/31 00:09:22;;;;;;;4.33;2.40;;;11.60;99.90;;;;;;491425;241;28524;-68
2022/10/31 00:11:24;;;;;;;3.23;2.50;;;11.60;99.90;;;;;;491419;241;28306;-69
2022/10/31 00:13:25;;;;;;;5.07;2.60;;;11.50;99.90;;;;;;491372;240;28226;-68
2022/10/31 00:15:26;;;;;;;8.53;2.73;;;11.50;99.90;;;;;;491403;241;28117;-68
2022/10/31 00:17:27;;;;;;;2.93;2.30;;;11.50;99.90;;;;;;491408;241;27900;-70
2022/10/31 00:19:29;;;;;;;3.90;2.60;;;11.50;99.90;;;;;;491402;242;28105;-68
2022/10/31 00:21:30;;;;;;;3.43;2.27;;;11.50;99.90;;;;;;491408;241;28052;-69
2022/10/31 00:23:31;;;;;;;2.57;2.37;;;11.50;99.90;;;;;;491409;241;28105;-68
2022/10/31 00:25:32;;;;;;;4.23;1.93;;;11.50;99.90;;;;;;491431;242;28216;-69
2022/10/31 00:27:34;;;;;;;2.60;2.40;;;11.50;99.90;;;;;;491448;242;28026;-70
2022/10/31 00:29:35;;;;;;;3.93;2.27;;;11.50;99.90;;;;;;491445;241;28636;-69
2022/10/31 00:31:36;;;;;;;2.50;2.30;;;11.50;99.90;;;;;;491423;241;28862;-69
2022/10/31 00:33:37;;;;;;;2.50;2.30;;;11.50;99.90;;;;;;491413;241;28749;-68
2022/10/31 00:35:39;;;;;;;3.00;2.47;;;11.50;99.90;;;;;;491394;242;28166;-68
2022/10/31 00:37:40;;;;;;;3.07;2.40;;;11.40;99.90;;;;;;491418;241;28108;-70
2022/10/31 00:39:41;;;;;;;3.43;2.40;;;11.40;99.90;;;;;;491436;241;28148;-69
2022/10/31 00:41:42;;;;;;;3.53;2.30;;;11.40;99.90;;;;;;491333;242;28142;-69
2022/10/31 00:43:44;;;;;;;3.43;2.50;;;11.40;99.90;;;;;;491414;239;28009;-68
2022/10/31 00:45:45;;;;;;;2.50;2.30;;;11.40;99.90;;;;;;491364;241;28020;-69
2022/10/31 00:47:46;;;;;;;3.50;2.10;;;11.40;99.90;;;;;;491428;241;28116;-70
2022/10/31 00:49:47;;;;;;;3.57;2.40;;;11.40;99.90;;;;;;491391;241;28066;-69
2022/10/31 00:51:49;;;;;;;2.60;2.40;;;11.30;99.90;;;;;;491409;242;28206;-69
2022/10/31 00:53:50;;;;;;;3.07;2.50;;;11.30;99.90;;;;;;491401;241;28587;-68
2022/10/31 00:55:51;;;;;;;2.90;2.37;;;11.30;99.90;;;;;;491395;241;28601;-69
2022/10/31 00:57:52;;;;;;;3.10;2.77;;;11.30;99.90;;;;;;491422;242;28477;-71
2022/10/31 00:59:54;;;;;;;2.33;2.23;;;11.30;99.90;;;;;;491411;241;28214;-68
2022/10/31 01:01:55;;;;;;;3.40;2.33;;;11.30;99.90;;;;;;491388;241;28127;-69
2022/10/31 01:03:56;;;;;;;2.60;2.37;;;11.20;99.90;;;;;;491403;241;27979;-69
2022/10/31 01:05:58;;;;;;;2.03;1.83;;;11.30;99.90;;;;;;491439;241;28099;-69
2022/10/31 01:07:59;;;;;;;2.63;2.43;;;11.20;99.90;;;;;;491413;241;28211;-69
2022/10/31 01:10:00;;;;;;;2.20;2.03;;;11.20;99.90;;;;;;491423;241;28092;-68
2022/10/31 01:12:01;;;;;;;2.30;2.10;;;11.20;99.90;;;;;;491411;241;28013;-69
2022/10/31 01:14:03;;;;;;;3.87;2.10;;;11.20;99.90;;;;;;491416;242;28102;-68
2022/10/31 01:16:04;;;;;;;2.80;2.10;;;11.20;99.90;;;;;;491384;241;28014;-69
2022/10/31 01:18:05;;;;;;;2.77;2.50;;;11.20;99.90;;;;;;491386;241;28580;-70
2022/10/31 01:20:06;;;;;;;2.63;2.43;;;11.20;99.90;;;;;;491411;241;27973;-69
2022/10/31 01:22:08;;;;;;;2.50;2.30;;;11.20;99.90;;;;;;491404;241;28119;-69
2022/10/31 01:24:09;;;;;;;2.43;2.23;;;11.20;99.90;;;;;;491415;241;29442;-68
2022/10/31 01:26:10;;;;;;;2.63;2.33;;;11.20;99.90;;;;;;491416;241;28443;-69
2022/10/31 01:28:11;;;;;;;2.30;1.93;;;11.20;99.90;;;;;;491389;241;28571;-70
2022/10/31 01:30:13;;;;;;;3.77;2.10;;;11.10;99.90;;;;;;491410;241;28659;-69
2022/10/31 01:32:14;;;;;;;3.03;2.20;;;11.10;99.90;;;;;;491399;241;28205;-69
2022/10/31 01:34:15;;;;;;;3.33;2.40;;;11.20;99.90;;;;;;491329;241;28098;-68
2022/10/31 01:36:16;;;;;;;2.20;2.10;;;11.20;99.90;;;;;;491396;242;27988;-69
2022/10/31 01:38:18;;;;;;;3.00;2.17;;;11.20;99.90;;;;;;491398;241;28014;-69
2022/10/31 01:40:19;;;;;;;2.17;2.07;;;11.20;99.90;;;;;;491405;241;27974;-69
2022/10/31 01:42:20;;;;;;;2.20;2.00;;;11.20;99.90;;;;;;491392;241;28131;-71
2022/10/31 01:44:21;;;;;;;2.40;2.20;;;11.20;99.90;;;;;;491411;242;28059;-69
2022/10/31 01:46:23;;;;;;;3.00;2.20;;;11.10;99.90;;;;;;491408;241;27851;-70
2022/10/31 01:48:24;;;;;;;4.43;2.20;;;11.10;99.90;;;;;;491401;241;28032;-71
2022/10/31 01:50:25;;;;;;;2.10;2.00;;;11.20;99.90;;;;;;491381;242;28588;-69
2022/10/31 01:52:26;;;;;;;2.40;2.20;;;11.20;99.90;;;;;;491405;241;28598;-69
2022/10/31 01:54:28;;;;;;;3.00;2.70;;;11.20;99.90;;;;;;491413;241;29453;-68
2022/10/31 01:56:29;;;;;;;2.40;2.27;;;11.20;99.90;;;;;;491417;241;28175;-69
2022/10/31 01:58:30;;;;;;;2.60;2.40;;;11.20;99.90;;;;;;491413;241;28001;-68
2022/10/31 02:00:31;;;;;;;1.90;1.80;;;11.20;99.90;;;;;;491403;241;27938;-69
2022/10/31 02:02:33;;;;;;;2.30;2.17;;;11.20;99.90;;;;;;491345;241;28207;-68
2022/10/31 02:04:34;;;;;;;2.30;2.20;;;11.20;99.90;;;;;;491446;241;28106;-69
2022/10/31 02:06:35;;;;;;;2.60;2.40;;;11.20;99.90;;;;;;491460;241;27999;-68
2022/10/31 02:08:36;;;;;;;2.80;2.60;;;11.20;99.90;;;;;;491482;241;27961;-70
2022/10/31 02:10:38;;;;;;;2.70;2.43;;;11.20;99.90;;;;;;491396;241;28151;-69
2022/10/31 02:12:39;;;;;;;2.33;2.13;;;11.20;99.90;;;;;;491388;241;28093;-68
2022/10/31 02:14:40;;;;;;;4.00;2.30;;;11.10;99.90;;;;;;491238;241;28944;-69
2022/10/31 02:16:41;;;;;;;2.30;2.10;;;11.10;99.90;;;;;;491397;241;28408;-69
2022/10/31 02:18:43;;;;;;;2.37;2.13;;;11.10;99.90;;;;;;491412;241;28597;-70
2022/10/31 02:20:44;;;;;;;2.47;2.27;;;11.10;99.90;;;;;;491392;241;28595;-69
2022/10/31 02:22:45;;;;;;;2.17;2.03;;;11.20;99.90;;;;;;491379;241;28251;-68
2022/10/31 02:24:46;;;;;;;1.90;1.80;;;11.20;99.90;;;;;;491394;241;28542;-69
2022/10/31 02:26:48;;;;;;;2.67;2.27;;;11.20;99.90;;;;;;491398;238;28313;-68
2022/10/31 02:28:49;;;;;;;2.00;1.90;;;11.20;99.90;;;;;;491391;241;28716;-69
2022/10/31 02:30:50;;;;;;;2.30;1.97;;;11.10;99.90;;;;;;491402;241;28663;-68
2022/10/31 02:32:51;;;;;;;3.47;2.80;;;11.10;99.90;;;;;;491397;238;28620;-68
2022/10/31 02:34:53;;;;;;;2.47;2.20;;;11.10;99.90;;;;;;491396;241;30633;-70
2022/10/31 02:36:54;;;;;;;2.70;1.90;;;11.10;99.90;;;;;;491423;241;28235;-69
2022/10/31 02:38:55;;;;;;;3.03;2.47;;;11.10;99.90;;;;;;491384;241;28167;-69
2022/10/31 02:40:56;;;;;;;2.47;2.27;;;11.10;99.90;;;;;;491400;241;27981;-68
2022/10/31 02:42:58;;;;;;;2.20;2.10;;;11.10;99.90;;;;;;491388;242;28124;-69
2022/10/31 02:44:59;;;;;;;2.67;2.33;;;11.20;99.90;;;;;;491407;241;27976;-69
2022/10/31 02:47:00;;;;;;;3.00;2.70;;;11.10;99.90;;;;;;491400;241;28120;-68
2022/10/31 02:49:01;;;;;;;2.70;2.17;;;11.20;99.90;;;;;;491293;241;28021;-69
2022/10/31 02:51:03;;;;;;;2.80;2.30;;;11.20;99.90;;;;;;491342;241;28166;-68
2022/10/31 02:53:04;;;;;;;2.10;2.00;;;11.20;99.90;;;;;;491407;241;28235;-68
2022/10/31 02:55:05;;;;;;;2.10;2.00;;;11.20;99.90;;;;;;491386;241;28607;-68
2022/10/31 02:57:06;;;;;;;4.40;2.80;;;11.20;99.90;;;;;;491387;241;28547;-69
2022/10/31 02:59:08;;;;;;;2.83;2.57;;;11.20;99.90;;;;;;491390;241;28596;-69
2022/10/31 03:01:09;;;;;;;2.37;2.20;;;11.20;99.90;;;;;;491413;241;27918;-69
2022/10/31 03:03:10;;;;;;;3.17;2.30;;;11.20;99.90;;;;;;491387;241;28239;-69
2022/10/31 03:05:11;;;;;;;3.40;2.50;;;11.20;99.90;;;;;;491402;241;28220;-69
2022/10/31 03:07:13;;;;;;;3.70;2.80;;;11.20;99.90;;;;;;491408;242;28205;-69
2022/10/31 03:09:14;;;;;;;2.50;2.30;;;11.30;99.90;;;;;;491429;241;28104;-71
2022/10/31 03:11:15;;;;;;;4.50;2.30;;;11.30;99.90;;;;;;491433;241;27922;-69
2022/10/31 03:13:16;;;;;;;2.70;2.37;;;11.30;99.90;;;;;;491408;241;28156;-69
2022/10/31 03:15:18;;;;;;;2.27;2.17;;;11.30;99.90;;;;;;491389;241;27982;-69
2022/10/31 03:17:19;;;;;;;2.63;2.43;;;11.30;99.90;;;;;;491301;241;28010;-69
2022/10/31 03:19:20;;;;;;;2.47;2.27;;;11.30;99.90;;;;;;491240;242;28703;-69
2022/10/31 03:21:21;;;;;;;2.80;2.60;;;11.30;99.90;;;;;;491373;241;28675;-69
2022/10/31 03:23:23;;;;;;;3.40;2.20;;;11.30;99.90;;;;;;491351;241;28633;-68
2022/10/31 03:25:24;;;;;;;2.80;2.30;;;11.30;99.90;;;;;;491333;241;28090;-68
2022/10/31 03:27:25;;;;;;;4.10;2.57;;;11.30;99.90;;;;;;491262;241;28071;-69
2022/10/31 03:29:27;;;;;;;4.77;2.33;;;11.20;99.90;;;;;;491359;241;28225;-70
2022/10/31 03:31:28;;;;;;;2.57;2.37;;;11.20;99.90;;;;;;491339;241;28183;-68
2022/10/31 03:33:29;;;;;;;3.60;3.00;;;11.20;99.90;;;;;;491378;241;28035;-69
2022/10/31 03:35:30;;;;;;;3.50;2.60;;;11.20;99.90;;;;;;491406;241;28181;-68
2022/10/31 03:37:32;;;;;;;3.03;2.73;;;11.20;99.90;;;;;;491422;241;28137;-69
2022/10/31 03:39:33;;;;;;;2.60;2.40;;;11.20;99.90;;;;;;491416;241;28139;-71
2022/10/31 03:41:34;;;;;;;3.90;3.10;;;11.10;99.90;;;;;;491423;241;28343;-69
2022/10/31 03:43:35;;;;;;;4.13;2.83;;;11.10;99.90;;;;;;491409;241;28703;-69
2022/10/31 03:45:37;;;;;;;4.23;3.00;;;11.10;99.90;;;;;;491410;241;28963;-68
2022/10/31 03:47:38;;;;;;;3.10;2.70;;;11.10;99.90;;;;;;491422;239;28632;-69
2022/10/31 03:49:39;;;;;;;4.63;2.90;;;11.10;99.90;;;;;;491433;242;28495;-70
2022/10/31 03:51:40;;;;;;;4.27;2.70;;;11.10;99.90;;;;;;491376;241;28060;-68
2022/10/31 03:53:42;;;;;;;3.13;2.83;;;11.10;99.90;;;;;;491420;241;28194;-70
2022/10/31 03:55:43;;;;;;;4.47;2.63;;;11.10;99.90;;;;;;491427;241;27895;-69
2022/10/31 03:57:44;;;;;;;3.33;2.73;;;11.10;99.90;;;;;;491429;242;28303;-69
2022/10/31 03:59:45;;;;;;;3.13;2.63;;;11.00;99.90;;;;;;491416;241;28033;-70
2022/10/31 04:01:47;;;;;;;5.23;3.07;;;10.90;99.90;;;;;;491406;241;28040;-68
2022/10/31 04:03:48;;;;;;;3.07;2.77;;;10.90;99.90;;;;;;491407;238;28071;-70
2022/10/31 04:05:49;;;;;;;3.30;2.73;;;10.90;99.90;;;;;;491422;241;28131;-68
2022/10/31 04:07:50;;;;;;;2.80;2.50;;;11.00;99.90;;;;;;491406;241;28015;-69
2022/10/31 04:09:52;;;;;;;3.30;2.40;;;10.90;99.90;;;;;;491409;241;29071;-70
2022/10/31 04:11:53;;;;;;;3.80;2.77;;;11.00;99.90;;;;;;491405;241;28432;-69
2022/10/31 04:13:54;;;;;;;3.07;2.77;;;11.00;99.90;;;;;;491415;240;28461;-69
2022/10/31 04:15:55;;;;;;;3.53;2.77;;;11.00;99.90;;;;;;491397;241;27901;-69
2022/10/31 04:17:57;;;;;;;3.13;2.77;;;11.00;99.90;;;;;;491415;238;27893;-69
2022/10/31 04:19:58;;;;;;;2.60;2.40;;;11.00;99.90;;;;;;491427;241;27895;-69
2022/10/31 04:21:59;;;;;;;4.03;2.60;;;11.00;99.90;;;;;;491423;241;27896;-68
2022/10/31 04:24:00;;;;;;;2.80;2.60;;;11.00;99.90;;;;;;491397;241;27874;-70
2022/10/31 04:26:02;;;;;;;3.10;2.60;;;11.00;99.90;;;;;;491418;241;27987;-69
2022/10/31 04:28:03;;;;;;;2.60;2.40;;;11.00;99.90;;;;;;491442;242;28017;-68
2022/10/31 04:30:04;;;;;;;6.70;2.73;;;11.00;99.90;;;;;;491397;241;27965;-68
2022/10/31 04:32:05;;;;;;;2.93;2.50;;;11.00;99.90;;;;;;491426;241;28166;-69
2022/10/31 04:34:07;;;;;;;3.50;3.20;;;11.00;99.90;;;;;;491433;241;28371;-70
2022/10/31 04:36:08;;;;;;;3.27;3.07;;;11.00;99.90;;;;;;491424;241;28657;-69
2022/10/31 04:38:09;;;;;;;3.80;2.80;;;11.00;99.90;;;;;;491401;242;28614;-69
2022/10/31 04:40:10;;;;;;;3.27;2.97;;;11.00;99.90;;;;;;491343;241;28037;-68
2022/10/31 04:42:12;;;;;;;3.33;3.03;;;11.00;99.90;;;;;;491318;241;28035;-69
2022/10/31 04:44:13;;;;;;;3.40;2.90;;;11.00;99.90;;;;;;491318;242;28025;-70
2022/10/31 04:46:14;;;;;;;2.97;2.50;;;11.10;99.90;;;;;;491356;240;28117;-68
2022/10/31 04:48:15;;;;;;;3.40;3.10;;;11.10;99.90;;;;;;491263;241;27977;-69
2022/10/31 04:50:17;;;;;;;3.40;3.10;;;11.00;99.90;;;;;;491264;241;28130;-69
2022/10/31 04:52:18;;;;;;;2.90;2.70;;;11.00;99.90;;;;;;491199;241;28067;-69
2022/10/31 04:54:19;;;;;;;3.20;2.80;;;11.00;99.90;;;;;;491344;241;28101;-69
2022/10/31 04:56:20;;;;;;;3.50;3.20;;;11.00;99.90;;;;;;491389;241;28197;-68
2022/10/31 04:58:22;;;;;;;2.80;2.60;;;11.00;99.90;;;;;;491386;241;28575;-69
2022/10/31 05:00:23;;;;;;;4.53;3.20;;;11.00;99.90;;;;;;491420;241;28508;-71
2022/10/31 05:02:24;;;;;;;3.00;2.70;;;11.00;99.90;;;;;;491397;241;28591;-69
2022/10/31 05:04:25;;;;;;;3.77;2.80;;;11.00;99.90;;;;;;491405;241;28589;-69
2022/10/31 05:06:27;;;;;;;2.40;2.30;;;11.00;99.90;;;;;;491409;241;27934;-69
2022/10/31 05:08:28;;;;;;;4.20;3.23;;;11.10;99.90;;;;;;491407;241;28004;-69
2022/10/31 05:10:29;;;;;;;6.77;2.90;;;11.00;99.90;;;;;;491403;241;27984;-70
2022/10/31 05:12:30;;;;;;;3.03;2.80;;;11.00;99.90;;;;;;491402;241;27941;-68
2022/10/31 05:14:32;;;;;;;3.10;2.80;;;10.90;99.90;;;;;;491391;241;28086;-70
2022/10/31 05:16:33;;;;;;;2.80;2.60;;;10.90;99.90;;;;;;491412;241;28080;-68
2022/10/31 05:18:34;;;;;;;2.97;2.77;;;10.90;99.90;;;;;;491409;242;28038;-68
2022/10/31 05:20:35;;;;;;;3.27;3.00;;;11.00;99.90;;;;;;491404;242;28214;-70
2022/10/31 05:22:37;;;;;;;3.00;2.80;;;11.00;99.90;;;;;;491393;241;28170;-69
2022/10/31 05:24:38;;;;;;;3.20;2.70;;;10.90;99.90;;;;;;491379;241;28369;-69
2022/10/31 05:26:39;;;;;;;5.03;3.10;;;10.90;99.90;;;;;;491387;241;29527;-68
2022/10/31 05:28:40;;;;;;;3.10;2.80;;;10.90;99.90;;;;;;491376;241;28375;-68
2022/10/31 05:30:42;;;;;;;5.63;3.30;;;10.90;99.90;;;;;;491461;241;28626;-70
2022/10/31 05:32:43;;;;;;;2.83;2.63;;;10.90;99.90;;;;;;491471;241;27970;-69
2022/10/31 05:34:44;;;;;;;2.83;2.63;;;10.90;99.90;;;;;;491473;241;27891;-69
2022/10/31 05:36:45;;;;;;;2.57;2.43;;;10.90;99.90;;;;;;491457;241;28081;-70
2022/10/31 05:38:47;;;;;;;2.73;2.53;;;10.80;99.90;;;;;;491397;241;28051;-69
2022/10/31 05:40:48;;;;;;;3.80;2.70;;;10.80;99.90;;;;;;491411;241;28152;-69
2022/10/31 05:42:49;;;;;;;5.70;3.00;;;10.80;99.90;;;;;;491373;241;27983;-68
2022/10/31 05:44:50;;;;;;;2.80;2.50;;;10.80;99.90;;;;;;491419;241;27992;-69
2022/10/31 05:46:52;;;;;;;3.23;2.40;;;10.80;99.90;;;;;;491410;241;28395;-69
2022/10/31 05:48:53;;;;;;;3.50;3.13;;;10.80;99.90;;;;;;491396;241;28325;-69
2022/10/31 05:50:54;;;;;;;6.50;2.50;;;10.80;99.90;;;;;;491397;241;28533;-69
2022/10/31 05:52:55;;;;;;;2.77;2.57;;;10.80;99.90;;;;;;491384;241;28216;-69
2022/10/31 05:54:57;;;;;;;3.17;2.80;;;10.80;99.90;;;;;;491391;241;28337;-69
2022/10/31 05:56:58;;;;;;;2.93;2.63;;;10.80;99.90;;;;;;491377;240;27968;-70
2022/10/31 05:58:59;;;;;;;5.33;2.83;;;10.80;99.90;;;;;;491409;241;28064;-69
2022/10/31 06:01:00;;;;;;;4.50;2.63;;;10.80;99.90;;;;;;491419;241;27780;-70
2022/10/31 06:03:02;;;;;;;2.60;2.40;;;10.70;99.90;;;;;;491401;241;27982;-68
2022/10/31 06:05:03;;;;;;;4.40;2.97;;;10.60;99.90;;;;;;491406;241;28028;-69
2022/10/31 06:07:04;;;;;;;4.50;3.43;;;10.50;99.90;;;;;;491424;241;27914;-70
2022/10/31 06:09:05;;;;;;;3.20;2.90;;;10.60;99.90;;;;;;491397;241;28053;-69
2022/10/31 06:11:07;;;;;;;5.00;3.30;;;10.60;99.90;;;;;;491386;241;28231;-69
2022/10/31 06:13:08;;;;;;;4.20;3.13;;;10.60;99.90;;;;;;491395;241;28082;-69
2022/10/31 06:15:09;;;;;;;3.27;2.90;;;10.60;99.90;;;;;;491404;241;28496;-69
2022/10/31 06:17:10;;;;;;;4.03;3.10;;;10.60;99.90;;;;;;491418;242;28543;-68
2022/10/31 06:19:12;;;;;;;10.53;3.80;;;10.60;99.90;;;;;;491418;241;28344;-68
2022/10/31 06:21:13;;;;;;;3.50;2.80;;;10.70;99.90;;;;;;491420;241;28154;-69
2022/10/31 06:23:14;;;;;;;3.43;3.13;;;10.70;99.90;;;;;;491401;241;27894;-68
2022/10/31 06:25:15;;;;;;;4.30;2.93;;;10.70;99.90;;;;;;491416;242;27899;-69
2022/10/31 06:27:17;;;;;;;3.57;3.27;;;10.70;99.90;;;;;;491393;241;27977;-70
2022/10/31 06:29:18;;;;;;;3.37;3.00;;;10.70;99.90;;;;;;491400;241;27892;-69
2022/10/31 06:31:19;;;;;;;6.10;3.10;;;10.70;99.90;;;;;;491385;241;28021;-69
2022/10/31 06:33:20;;;;;;;3.77;3.03;;;10.60;99.90;;;;;;491398;241;28065;-68
2022/10/31 06:35:22;;;;;;;3.40;3.20;;;10.70;99.90;;;;;;491410;241;28214;-69
2022/10/31 06:37:23;;;;;;;2.60;2.40;;;10.70;99.90;;;;;;491413;238;28610;-71
2022/10/31 06:39:24;;;;;;;2.80;2.60;;;10.80;99.90;;;;;;491395;241;28577;-68
2022/10/31 06:41:25;;;;;;;4.63;2.90;;;10.80;99.90;;;;;;491398;241;28570;-70
2022/10/31 06:43:27;;;;;;;3.37;3.13;;;10.90;99.90;;;;;;491387;241;28502;-68
2022/10/31 06:45:28;;;;;;;3.00;2.70;;;10.90;99.90;;;;;;491399;241;27993;-69
2022/10/31 06:47:29;;;;;;;3.60;2.43;;;10.90;99.90;;;;;;491396;241;27955;-70
2022/10/31 06:49:30;;;;;;;3.10;2.80;;;10.90;99.90;;;;;;491404;241;28068;-69
2022/10/31 06:51:32;;;;;;;3.33;3.03;;;11.00;99.90;;;;;;491399;241;27974;-69
2022/10/31 06:53:33;;;;;;;3.10;2.80;;;11.00;99.90;;;;;;491397;241;28122;-69
2022/10/31 06:55:34;;;;;;;3.33;3.03;;;11.00;99.90;;;;;;491389;240;28069;-69
2022/10/31 06:57:35;;;;;;;3.43;3.23;;;11.10;99.90;;;;;;491396;241;28194;-70
2022/10/31 06:59:37;;;;;;;3.40;3.10;;;11.10;99.90;;;;;;491387;241;28159;-69
2022/10/31 07:01:38;;;;;;;5.23;2.70;;;11.20;99.90;;;;;;491345;238;28106;-69
2022/10/31 07:03:39;;;;;;;3.40;3.10;;;11.30;99.90;;;;;;491395;241;28439;-69
2022/10/31 07:05:40;;;;;;;3.20;2.90;;;11.30;99.90;;;;;;491361;241;28677;-69
2022/10/31 07:07:42;;;;;;;3.00;2.80;;;11.30;99.90;;;;;;491138;241;28631;-71
2022/10/31 07:09:43;;;;;;;3.53;3.23;;;11.30;99.90;;;;;;491410;240;28111;-69
2022/10/31 07:11:44;;;;;;;3.30;3.00;;;11.40;99.90;;;;;;491393;240;28319;-69
2022/10/31 07:13:45;;;;;;;3.90;3.50;;;11.50;99.90;;;;;;491399;241;28182;-68
2022/10/31 07:15:47;;;;;;;3.93;3.53;;;11.60;99.90;;;;;;491384;241;28316;-69
2022/10/31 07:17:48;;;;;;;3.80;3.30;;;11.60;99.90;;;;;;491422;241;28087;-71
2022/10/31 07:19:49;;;;;;;4.20;3.80;;;11.60;99.90;;;;;;491425;241;28191;-69
2022/10/31 07:21:50;;;;;;;4.40;3.70;;;11.60;99.90;;;;;;491429;241;28339;-70
2022/10/31 07:23:52;;;;;;;5.83;3.63;;;11.60;99.90;;;;;;491424;242;28318;-68
2022/10/31 07:25:53;;;;;;;5.13;4.20;;;11.60;99.90;;;;;;491407;241;28370;-69
2022/10/31 07:27:54;;;;;;;4.00;3.70;;;11.70;99.90;;;;;;491454;241;28845;-69
2022/10/31 07:29:55;;;;;;;4.17;3.77;;;11.70;99.90;;;;;;491436;241;28761;-69
2022/10/31 07:31:57;;;;;;;4.87;4.07;;;11.70;99.90;;;;;;491427;242;28593;-70
2022/10/31 07:33:58;;;;;;;4.50;4.00;;;11.70;99.90;;;;;;491404;241;28726;-69
2022/10/31 07:35:59;;;;;;;4.73;4.20;;;11.70;99.90;;;;;;491430;241;28448;-70
2022/10/31 07:38:00;;;;;;;4.27;3.87;;;11.60;99.90;;;;;;491430;241;28122;-71
2022/10/31 07:40:02;;;;;;;4.30;3.77;;;11.60;99.90;;;;;;491474;238;27931;-69
2022/10/31 07:42:03;;;;;;;6.63;4.57;;;11.70;99.90;;;;;;491415;241;28523;-70
2022/10/31 07:44:04;;;;;;;6.17;3.80;;;11.70;99.90;;;;;;491393;242;28156;-69
2022/10/31 07:46:05;;;;;;;6.63;3.90;;;11.90;99.90;;;;;;491415;241;28822;-69
2022/10/31 07:48:07;;;;;;;9.17;4.93;;;12.00;99.90;;;;;;491423;241;28333;-72
2022/10/31 07:50:08;;;;;;;5.67;4.13;;;12.10;99.90;;;;;;491427;241;28315;-68
2022/10/31 07:52:09;;;;;;;4.53;4.07;;;12.20;99.90;;;;;;491421;241;28934;-69
2022/10/31 07:54:11;;;;;;;5.03;4.57;;;12.30;99.90;;;;;;491397;241;28850;-69
2022/10/31 07:56:13;;;;;;;4.30;3.97;;;;;;;;;;491414;241;28624;-70
2022/10/31 07:58:14;;;;;;;6.70;3.70;;;12.40;99.90;;;;;;491403;242;27224;-69
2022/10/31 08:00:15;;;;;;;4.23;3.47;;;12.50;99.90;;;;;;491383;242;28413;-70
2022/10/31 08:02:17;;;;;;;5.57;3.50;;;12.60;99.90;;;;;;491411;241;28248;-69
2022/10/31 08:04:18;;;;;;;4.80;3.57;;;12.70;99.90;;;;;;491373;241;29333;-70
2022/10/31 08:06:19;;;;;;;14.07;3.57;;;12.80;99.90;;;;;;491406;241;28695;-70
2022/10/31 08:08:20;;;;;;;3.90;3.50;;;12.80;99.90;;;;;;491406;241;28783;-69
2022/10/31 08:10:22;;;;;;;3.70;3.40;;;12.80;99.90;;;;;;491401;241;28240;-69
2022/10/31 08:12:23;;;;;;;4.07;3.60;;;12.80;99.90;;;;;;491414;241;28156;-69
2022/10/31 08:14:24;;;;;;;3.30;3.00;;;12.80;99.90;;;;;;491420;241;28380;-69
2022/10/31 08:16:26;;;;;;;4.60;3.27;;;12.80;99.90;;;;;;491431;241;28126;-71
2022/10/31 08:18:27;;;;;;;3.60;3.30;;;12.90;99.90;;;;;;491428;241;28115;-69
2022/10/31 08:20:28;;;;;;;3.80;3.13;;;12.90;99.90;;;;;;491410;241;28129;-69
2022/10/31 08:22:29;;;;;;;4.13;3.20;;;13.00;99.90;;;;;;491424;241;28117;-69
2022/10/31 08:24:31;;;;;;;4.43;3.03;;;13.00;99.90;;;;;;491409;241;28786;-69
2022/10/31 08:26:32;;;;;;;4.57;3.03;;;13.10;99.90;;;;;;491408;241;28121;-69
2022/10/31 08:28:33;;;;;;;3.77;3.40;;;13.10;99.90;;;;;;491418;241;28080;-69
2022/10/31 08:30:34;;;;;;;4.43;3.40;;;13.20;99.90;;;;;;491435;241;28261;-70
2022/10/31 08:32:36;;;;;;;3.50;3.07;;;13.20;99.90;;;;;;491411;241;29510;-69
2022/10/31 08:34:37;;;;;;;3.50;3.20;;;13.20;99.90;;;;;;491412;241;28846;-69
2022/10/31 08:36:38;;;;;;;3.20;3.00;;;13.20;99.90;;;;;;491408;241;28704;-71
2022/10/31 08:38:39;;;;;;;3.00;2.80;;;13.30;99.90;;;;;;491395;241;28299;-69
2022/10/31 08:40:41;;;;;;;3.03;2.73;;;13.30;99.90;;;;;;491358;241;28208;-69
2022/10/31 08:42:42;;;;;;;3.90;3.30;;;13.40;99.90;;;;;;491402;240;28260;-69
2022/10/31 08:44:43;;;;;;;4.37;3.50;;;13.40;99.90;;;;;;491389;241;28436;-70
2022/10/31 08:46:44;;;;;;;4.70;3.20;;;13.50;99.90;;;;;;491422;241;28843;-71
2022/10/31 08:48:46;;;;;;;4.43;3.20;;;13.60;99.90;;;;;;491434;242;28107;-70
2022/10/31 08:50:47;;;;;;;3.13;2.83;;;13.60;99.90;;;;;;491419;241;28758;-69
2022/10/31 08:52:48;;;;;;;4.00;3.20;;;13.60;99.90;;;;;;491428;241;28431;-69
2022/10/31 08:54:49;;;;;;;5.13;3.60;;;13.70;99.90;;;;;;491430;241;28726;-69
2022/10/31 08:56:51;;;;;;;4.90;3.87;;;13.70;99.90;;;;;;491409;241;29799;-70
2022/10/31 08:58:52;;;;;;;7.27;3.30;;;13.80;99.90;;;;;;491410;241;29223;-69
2022/10/31 09:00:53;;;;;;;3.70;2.83;;;13.90;99.90;;;;;;491398;241;29230;-69
2022/10/31 09:02:54;;;;;;;3.67;2.87;;;14.00;99.90;;;;;;491411;241;28855;-69
2022/10/31 09:04:56;;;;;;;6.47;3.10;;;14.00;99.90;;;;;;491402;238;28302;-69
2022/10/31 09:06:57;;;;;;;3.10;2.87;;;14.10;99.90;;;;;;491417;241;28452;-71
2022/10/31 09:08:58;;;;;;;4.00;2.70;;;14.10;99.90;;;;;;491403;242;28770;-69
2022/10/31 09:10:59;;;;;;;3.20;2.73;;;14.20;99.90;;;;;;491418;241;28786;-69
2022/10/31 09:13:01;;;;;;;3.43;2.80;;;14.30;99.90;;;;;;491396;241;28415;-70
2022/10/31 09:15:02;;;;;;;4.33;3.03;;;14.40;99.90;;;;;;491408;241;28734;-69
2022/10/31 09:17:03;;;;;;;5.50;2.90;;;14.50;99.90;;;;;;491341;241;28762;-70
2022/10/31 09:19:04;;;;;;;3.63;3.30;;;14.60;99.90;;;;;;491392;241;28845;-69
2022/10/31 09:21:06;;;;;;;4.73;3.33;;;14.60;99.90;;;;;;491397;238;30083;-69
2022/10/31 09:23:07;;;;;;;3.50;3.00;;;14.70;99.90;;;;;;491382;241;30076;-70
2022/10/31 09:25:08;;;;;;;3.03;2.83;;;14.80;99.90;;;;;;491368;241;29191;-69
2022/10/31 09:27:09;;;;;;;3.37;3.07;;;14.90;99.90;;;;;;491401;240;29289;-70
2022/10/31 09:29:11;;;;;;;4.50;3.20;;;15.10;99.90;;;;;;491408;241;28711;-70
2022/10/31 09:31:12;;;;;;;3.10;2.80;;;15.10;99.90;;;;;;491397;241;28766;-69
2022/10/31 09:33:13;;;;;;;3.37;3.07;;;15.20;99.90;;;;;;491422;240;28717;-69
2022/10/31 09:35:14;;;;;;;3.57;3.20;;;15.10;99.90;;;;;;491414;241;28781;-70
2022/10/31 09:37:16;;;;;;;3.43;3.13;;;15.10;99.90;;;;;;491392;241;28766;-70
2022/10/31 09:39:17;;;;;;;3.87;3.37;;;15.10;99.90;;;;;;491416;241;28730;-70
2022/10/31 09:41:18;;;;;;;4.27;3.57;;;15.20;99.90;;;;;;491392;242;28762;-69
2022/10/31 09:43:19;;;;;;;4.80;3.50;;;15.20;99.90;;;;;;491398;242;28718;-70
2022/10/31 09:45:21;;;;;;;7.20;3.17;;;15.20;99.90;;;;;;491384;241;28736;-70
2022/10/31 09:47:22;;;;;;;3.90;3.50;;;15.20;99.90;;;;;;491414;242;29306;-69
2022/10/31 09:49:23;;;;;;;3.50;3.20;;;15.30;99.90;;;;;;491411;241;29206;-69
2022/10/31 09:51:24;;;;;;;3.17;2.63;;;15.40;99.90;;;;;;491380;241;29221;-70
2022/10/31 09:53:26;;;;;;;3.33;2.70;;;15.50;99.90;;;;;;491405;241;28733;-70
2022/10/31 09:55:27;;;;;;;4.93;2.70;;;15.70;99.90;;;;;;491410;241;28821;-69
2022/10/31 09:57:28;;;;;;;5.23;3.00;;;15.80;99.90;;;;;;491165;241;28742;-70
2022/10/31 09:59:30;;;;;;;5.83;3.37;;;15.90;99.90;;;;;;491404;241;28714;-70
2022/10/31 10:01:31;;;;;;;3.80;2.83;;;15.90;99.90;;;;;;491400;242;28826;-70
2022/10/31 10:03:32;;;;;;;4.20;3.10;;;16.30;99.90;;;;;;491396;242;28817;-70
2022/10/31 10:05:33;;;;;;;4.47;3.57;;;16.60;99.90;;;;;;491399;241;28809;-70
2022/10/31 10:07:34;;;;;;;6.07;3.30;;;16.80;99.90;;;;;;491402;240;28840;-70
2022/10/31 10:09:36;;;;;;;4.00;2.67;;;16.90;99.90;;;;;;491400;241;28719;-70
2022/10/31 10:11:37;;;;;;;4.60;3.30;;;17.00;99.90;;;;;;491422;241;29289;-70
2022/10/31 10:13:38;;;;;;;3.23;2.83;;;17.10;99.90;;;;;;491445;241;29948;-70
2022/10/31 10:15:39;;;;;;;4.70;2.80;;;17.10;99.90;;;;;;491430;241;29164;-69
2022/10/31 10:17:41;;;;;;;5.60;2.63;;;17.20;99.90;;;;;;491427;242;28742;-70
2022/10/31 10:19:42;;;;;;;4.03;2.80;;;17.30;99.90;;;;;;491413;241;28710;-70
2022/10/31 10:21:44;;;;;;;3.40;2.67;;;17.30;99.90;;;;;;491398;241;28849;-70
2022/10/31 10:23:44;;;;;;;3.70;2.57;;;17.40;99.90;;;;;;491284;238;28836;-69
2022/10/31 10:25:46;;;;;;;7.37;2.93;;;17.40;99.90;;;;;;491399;241;28722;-69
2022/10/31 10:27:47;;;;;;;4.10;2.60;;;17.40;99.90;;;;;;491412;241;28857;-70
2022/10/31 10:29:48;;;;;;;3.50;2.67;;;17.50;99.90;;;;;;491413;241;28820;-69
2022/10/31 10:31:49;;;;;;;6.60;2.40;;;17.60;99.90;;;;;;491407;241;28837;-70